Time;durP1;ratioP1;P1;durP2;ratioP2;P2;SDS_P1;SDS_P2;PMS_P1;PMS_P2;Temp;Humidity;BMP_temperature;BMP_pressure;BME280_temperature;BME280_humidity;BME280_pressure;Samples;Min_cycle;Max_cycle;Signal;HPM_P1;HPM_P2
2022/03/30 00:00:50;;;;;;;8.52;6.65;;;;;;;;;;5074117;28;20035;-80
2022/03/30 00:03:15;;;;;;;9.35;7.45;;;;;;;;;;5076807;28;20386;-81
2022/03/30 00:05:41;;;;;;;9.50;6.72;;;;;;;;;;5059521;28;20078;-81
2022/03/30 00:08:06;;;;;;;7.68;6.78;;;;;;;;;;5058034;28;20035;-81
2022/03/30 00:10:33;;;;;;;8.23;6.85;;;;;;;;;;5074453;28;20397;-81
2022/03/30 00:12:58;;;;;;;8.63;6.68;;;;;;;;;;5075848;28;20032;-80
2022/03/30 00:15:24;;;;;;;8.13;6.60;;;;;;;;;;5056954;28;20490;-81
2022/03/30 00:17:50;;;;;;;9.93;7.00;;;;;;;;;;5075888;28;20082;-81
2022/03/30 00:20:15;;;;;;;7.97;6.35;;;;;;;;;;5059154;28;20414;-81
2022/03/30 00:22:41;;;;;;;7.72;6.55;;;;;;;;;;5075677;28;20036;-81
2022/03/30 00:25:07;;;;;;;7.35;5.95;;;;;;;;;;5096102;28;20031;-81
2022/03/30 00:27:33;;;;;;;8.05;5.90;;;;;;;;;;5096451;28;20032;-81
2022/03/30 00:29:59;;;;;;;7.45;6.05;;;;;;;;;;5079730;28;20173;-81
2022/03/30 00:32:24;;;;;;;8.98;7.03;;;;;;;;;;5079572;28;20039;-82
2022/03/30 00:34:50;;;;;;;8.27;6.40;;;;;;;;;;5062388;28;20043;-81
2022/03/30 00:37:15;;;;;;;7.85;6.65;;;;;;;;;;5062361;28;20027;-81
2022/03/30 00:39:41;;;;;;;7.57;5.80;;;;;;;;;;5078970;28;20051;-81
2022/03/30 00:42:17;;;;;;;7.55;6.65;;;;;;;;;;5079612;28;20043;-81
2022/03/30 00:44:42;;;;;;;8.70;6.95;;;;;;;;;;5079391;28;20082;-81
2022/03/30 00:47:15;;;;;;;8.68;6.45;;;;;;;;;;5095760;28;20523;-81
2022/03/30 00:49:40;;;;;;;7.13;5.55;;;;;;;;;;5078994;28;20067;-81
2022/03/30 00:52:06;;;;;;;7.65;6.32;;;;;;;;;;5095931;28;20078;-81
2022/03/30 00:54:32;;;;;;;7.85;6.15;;;;;;;;;;5078803;28;20063;-81
2022/03/30 00:56:57;;;;;;;9.18;6.57;;;;;;;;;;5062200;28;20505;-81
2022/03/30 00:59:23;;;;;;;8.15;6.38;;;;;;;;;;5090905;28;20051;-81
2022/03/30 01:01:48;;;;;;;7.05;5.75;;;;;;;;;;5075390;28;20040;-81
2022/03/30 01:04:14;;;;;;;9.90;6.70;;;;;;;;;;5059136;28;20043;-81
2022/03/30 01:06:39;;;;;;;7.70;6.13;;;;;;;;;;5075306;28;20495;-81
2022/03/30 01:09:05;;;;;;;8.23;6.38;;;;;;;;;;5042029;28;20032;-81
2022/03/30 01:11:30;;;;;;;8.73;6.07;;;;;;;;;;5058484;28;20036;-82
2022/03/30 01:13:56;;;;;;;8.77;6.53;;;;;;;;;;5063054;28;20031;-81
2022/03/30 01:16:23;;;;;;;8.48;6.22;;;;;;;;;;5095161;28;20043;-81
2022/03/30 01:18:49;;;;;;;7.75;6.18;;;;;;;;;;5079263;28;20036;-81
2022/03/30 01:21:16;;;;;;;8.98;6.15;;;;;;;;;;5078206;28;20043;-81
2022/03/30 01:23:41;;;;;;;8.35;6.47;;;;;;;;;;5074317;28;20032;-81
2022/03/30 01:26:07;;;;;;;8.80;6.55;;;;;;;;;;5058489;28;20073;-81
2022/03/30 01:28:32;;;;;;;7.35;5.88;;;;;;;;;;5041945;28;20406;-81
2022/03/30 01:33:44;;;;;;;8.88;7.15;;;;;;;;;;5076645;28;20040;-82
2022/03/30 01:36:10;;;;;;;8.88;6.93;;;;;;;;;;5074599;28;20028;-82
2022/03/30 01:38:35;;;;;;;7.18;6.00;;;;;;;;;;5074398;28;20039;-82
2022/03/30 01:41:01;;;;;;;8.27;6.32;;;;;;;;;;5074771;28;20036;-81
2022/03/30 01:43:28;;;;;;;6.97;6.15;;;;;;;;;;5058051;28;20040;-82
2022/03/30 01:45:54;;;;;;;8.38;6.00;;;;;;;;;;5073496;28;20031;-81
2022/03/30 01:48:19;;;;;;;8.77;6.68;;;;;;;;;;5094800;28;20042;-81
2022/03/30 01:50:45;;;;;;;8.23;6.47;;;;;;;;;;5060938;28;20489;-81
2022/03/30 01:53:10;;;;;;;7.13;6.28;;;;;;;;;;5094525;28;20562;-81
2022/03/30 01:55:35;;;;;;;8.05;6.63;;;;;;;;;;5094419;28;20035;-81
2022/03/30 01:58:02;;;;;;;7.68;6.18;;;;;;;;;;5073003;28;20126;-81
2022/03/30 02:00:27;;;;;;;7.93;6.25;;;;;;;;;;5056327;28;20530;-81
2022/03/30 02:02:53;;;;;;;7.95;5.78;;;;;;;;;;5056707;28;20070;-82
2022/03/30 02:05:18;;;;;;;6.43;5.35;;;;;;;;;;5040838;28;20034;-82
2022/03/30 02:07:45;;;;;;;7.40;6.05;;;;;;;;;;5074259;28;20559;-82
2022/03/30 02:10:11;;;;;;;8.52;6.13;;;;;;;;;;5056260;28;20028;-82
2022/03/30 02:12:37;;;;;;;7.38;5.82;;;;;;;;;;5057214;28;20101;-82
2022/03/30 02:15:03;;;;;;;8.43;6.38;;;;;;;;;;5038574;28;20061;-83
2022/03/30 02:17:29;;;;;;;7.65;6.40;;;;;;;;;;5040116;28;20036;-82
2022/03/30 02:19:55;;;;;;;7.13;6.43;;;;;;;;;;5056978;28;20032;-83
2022/03/30 02:22:22;;;;;;;7.45;6.63;;;;;;;;;;5057188;28;20028;-82
2022/03/30 02:24:48;;;;;;;6.22;5.43;;;;;;;;;;5056595;28;20036;-82
2022/03/30 02:27:14;;;;;;;8.10;6.47;;;;;;;;;;5040891;28;20036;-83
2022/03/30 02:29:40;;;;;;;7.82;6.30;;;;;;;;;;5055567;28;20086;-83
2022/03/30 02:32:06;;;;;;;7.18;5.97;;;;;;;;;;5057325;28;20048;-83
2022/03/30 02:34:31;;;;;;;6.35;5.65;;;;;;;;;;5040545;28;20024;-82
2022/03/30 02:36:57;;;;;;;8.07;6.40;;;;;;;;;;5040569;28;20028;-82
2022/03/30 02:39:22;;;;;;;6.70;5.15;;;;;;;;;;5056048;28;20379;-82
2022/03/30 02:41:48;;;;;;;6.95;6.03;;;;;;;;;;5056692;28;20046;-83
2022/03/30 02:44:13;;;;;;;7.63;6.45;;;;;;;;;;5072628;28;20066;-83
2022/03/30 02:46:39;;;;;;;9.35;6.63;;;;;;;;;;5042252;28;20036;-83
2022/03/30 02:49:05;;;;;;;8.38;7.13;;;;;;;;;;5060077;28;20038;-83
2022/03/30 02:51:30;;;;;;;8.23;6.50;;;;;;;;;;5076945;28;20043;-83
2022/03/30 02:53:56;;;;;;;8.57;6.25;;;;;;;;;;5076604;28;20043;-83
2022/03/30 02:56:21;;;;;;;8.00;5.97;;;;;;;;;;5094368;28;20039;-83
2022/03/30 02:58:47;;;;;;;7.90;6.28;;;;;;;;;;5076932;28;20459;-83
2022/03/30 03:01:12;;;;;;;8.57;6.63;;;;;;;;;;5093425;28;20032;-83
2022/03/30 03:03:38;;;;;;;8.40;6.93;;;;;;;;;;5060136;28;20047;-83
2022/03/30 03:06:03;;;;;;;8.75;6.45;;;;;;;;;;5093576;28;20035;-83
2022/03/30 03:08:29;;;;;;;8.57;6.50;;;;;;;;;;5077107;28;20112;-83
2022/03/30 03:10:54;;;;;;;8.00;6.05;;;;;;;;;;5093587;28;20043;-82
2022/03/30 03:13:20;;;;;;;7.75;6.00;;;;;;;;;;5076877;28;20051;-83
2022/03/30 03:15:46;;;;;;;9.07;6.60;;;;;;;;;;5075780;28;20036;-83
2022/03/30 03:18:12;;;;;;;6.97;6.28;;;;;;;;;;5076792;28;20155;-83
2022/03/30 03:20:40;;;;;;;7.30;6.10;;;;;;;;;;5093672;28;20039;-83
2022/03/30 03:23:06;;;;;;;8.25;7.03;;;;;;;;;;5073283;28;20028;-83
2022/03/30 03:25:33;;;;;;;7.03;5.95;;;;;;;;;;5055991;28;20051;-83
2022/03/30 03:27:59;;;;;;;7.68;6.50;;;;;;;;;;5040029;28;20406;-83
2022/03/30 03:30:25;;;;;;;7.50;6.57;;;;;;;;;;5056643;28;20036;-83
2022/03/30 03:32:50;;;;;;;7.25;6.07;;;;;;;;;;5072997;28;20071;-84
2022/03/30 03:35:16;;;;;;;7.60;6.70;;;;;;;;;;5040254;28;20082;-84
2022/03/30 03:37:42;;;;;;;8.00;6.43;;;;;;;;;;5039807;28;20426;-83
2022/03/30 03:40:08;;;;;;;8.00;6.18;;;;;;;;;;5039929;28;20059;-83
2022/03/30 03:42:34;;;;;;;8.00;6.40;;;;;;;;;;5056823;28;20045;-84
2022/03/30 03:44:59;;;;;;;7.47;6.38;;;;;;;;;;5040051;28;20402;-84
2022/03/30 03:47:26;;;;;;;9.18;6.70;;;;;;;;;;5061626;28;20040;-83
2022/03/30 03:49:51;;;;;;;8.60;7.15;;;;;;;;;;5039758;28;20506;-83
2022/03/30 03:52:18;;;;;;;6.95;6.25;;;;;;;;;;5056837;28;20052;-84
2022/03/30 03:54:44;;;;;;;8.02;5.75;;;;;;;;;;5072651;28;20036;-83
2022/03/30 03:57:09;;;;;;;6.50;5.50;;;;;;;;;;5041818;28;20091;-84
2022/03/30 03:59:35;;;;;;;7.28;6.03;;;;;;;;;;5052320;28;20153;-83
2022/03/30 04:02:02;;;;;;;7.70;6.40;;;;;;;;;;5063430;28;20131;-83
2022/03/30 04:04:28;;;;;;;6.63;5.90;;;;;;;;;;5063571;28;20032;-84
2022/03/30 04:06:54;;;;;;;6.60;5.80;;;;;;;;;;5079780;28;20039;-83
2022/03/30 04:09:19;;;;;;;7.05;6.35;;;;;;;;;;5079577;28;20401;-83
2022/03/30 04:11:45;;;;;;;7.57;6.00;;;;;;;;;;5080019;28;20075;-84
2022/03/30 04:14:10;;;;;;;6.82;5.78;;;;;;;;;;5079779;28;20382;-84
2022/03/30 04:16:36;;;;;;;8.85;6.22;;;;;;;;;;5062794;28;20885;-84
2022/03/30 04:19:01;;;;;;;7.25;6.03;;;;;;;;;;5062712;28;20042;-83
2022/03/30 04:21:26;;;;;;;8.05;6.50;;;;;;;;;;5079613;28;20095;-84
2022/03/30 04:23:52;;;;;;;8.32;6.03;;;;;;;;;;5079084;28;20085;-83
2022/03/30 04:26:17;;;;;;;7.18;5.60;;;;;;;;;;5062742;28;20153;-83
2022/03/30 04:28:43;;;;;;;7.32;5.90;;;;;;;;;;5062913;28;20032;-83
2022/03/30 04:31:08;;;;;;;6.90;5.57;;;;;;;;;;5062373;28;20040;-83
2022/03/30 04:33:34;;;;;;;7.15;5.72;;;;;;;;;;5062706;28;20024;-83
2022/03/30 04:36:00;;;;;;;6.95;5.63;;;;;;;;;;5096435;28;20035;-83
2022/03/30 04:38:25;;;;;;;7.68;5.88;;;;;;;;;;5062627;28;20042;-83
2022/03/30 04:40:51;;;;;;;7.15;5.97;;;;;;;;;;5061671;28;20184;-83
2022/03/30 04:43:17;;;;;;;7.80;5.90;;;;;;;;;;5062209;28;20168;-83
2022/03/30 04:45:42;;;;;;;8.05;6.07;;;;;;;;;;5057052;28;20069;-83
2022/03/30 04:48:08;;;;;;;6.68;5.97;;;;;;;;;;5062201;28;20084;-83
2022/03/30 04:50:33;;;;;;;6.68;5.50;;;;;;;;;;5062220;28;20374;-83
2022/03/30 04:52:59;;;;;;;6.60;5.28;;;;;;;;;;5061739;28;20027;-83
2022/03/30 04:55:24;;;;;;;7.65;6.60;;;;;;;;;;5076725;28;20107;-82
2022/03/30 04:57:51;;;;;;;6.97;6.25;;;;;;;;;;5060959;28;20024;-83
2022/03/30 05:00:16;;;;;;;6.55;5.85;;;;;;;;;;5076886;28;20035;-82
2022/03/30 05:02:42;;;;;;;6.25;5.30;;;;;;;;;;5061993;28;20371;-83
2022/03/30 05:05:08;;;;;;;6.25;5.00;;;;;;;;;;5060813;28;20118;-83
2022/03/30 05:07:34;;;;;;;6.68;5.70;;;;;;;;;;5078052;28;20035;-82
2022/03/30 05:09:59;;;;;;;6.20;5.53;;;;;;;;;;5075041;28;20040;-82
2022/03/30 05:12:24;;;;;;;7.50;5.20;;;;;;;;;;5077287;28;20111;-82
2022/03/30 05:14:50;;;;;;;7.10;5.25;;;;;;;;;;5092558;28;20558;-81
2022/03/30 05:17:16;;;;;;;10.27;5.63;;;;;;;;;;5075533;28;20126;-80
2022/03/30 05:19:44;;;;;;;7.57;5.07;;;;;;;;;;5056437;28;20413;-79
2022/03/30 05:22:09;;;;;;;7.18;4.72;;;;;;;;;;5057674;28;20036;-80
2022/03/30 05:24:35;;;;;;;7.60;5.32;;;;;;;;;;5091399;28;20434;-80
2022/03/30 05:27:00;;;;;;;10.68;5.45;;;;;;;;;;5078432;28;20043;-80
2022/03/30 05:29:26;;;;;;;6.53;5.80;;;;;;;;;;5078159;28;20227;-79
2022/03/30 05:31:51;;;;;;;9.27;5.90;;;;;;;;;;5077102;28;20032;-80
2022/03/30 05:34:17;;;;;;;9.35;5.85;;;;;;;;;;5078196;28;20043;-79
2022/03/30 05:36:42;;;;;;;12.20;6.40;;;;;;;;;;5077931;28;20032;-80
2022/03/30 05:39:08;;;;;;;11.02;5.85;;;;;;;;;;5061561;28;20035;-80
2022/03/30 05:41:34;;;;;;;9.45;6.38;;;;;;;;;;5095387;28;20374;-80
2022/03/30 05:44:00;;;;;;;8.60;5.68;;;;;;;;;;5094535;28;20067;-80
2022/03/30 05:46:26;;;;;;;8.93;5.90;;;;;;;;;;5077620;28;20122;-79
2022/03/30 05:48:51;;;;;;;15.30;7.35;;;;;;;;;;5061055;28;20043;-80
2022/03/30 05:51:17;;;;;;;9.23;6.88;;;;;;;;;;5077695;28;20130;-79
2022/03/30 05:53:42;;;;;;;12.40;6.85;;;;;;;;;;5077270;28;20043;-80
2022/03/30 05:56:07;;;;;;;10.48;6.80;;;;;;;;;;5077562;28;20039;-80
2022/03/30 05:58:33;;;;;;;9.82;6.60;;;;;;;;;;5094309;28;20390;-80
2022/03/30 06:00:58;;;;;;;17.50;7.32;;;;;;;;;;5094639;28;20024;-79
2022/03/30 06:03:24;;;;;;;9.65;6.30;;;;;;;;;;5094595;28;20039;-79
2022/03/30 06:05:51;;;;;;;10.32;6.07;;;;;;;;;;5060745;28;20157;-80
2022/03/30 06:08:16;;;;;;;9.40;6.32;;;;;;;;;;5077975;28;20508;-78
2022/03/30 06:10:42;;;;;;;9.88;5.90;;;;;;;;;;5075791;28;20032;-78
2022/03/30 06:13:07;;;;;;;12.68;7.35;;;;;;;;;;5062618;28;20285;-80
2022/03/30 06:15:33;;;;;;;9.77;7.05;;;;;;;;;;5056207;28;20024;-80
2022/03/30 06:17:58;;;;;;;11.15;6.97;;;;;;;;;;5066648;28;20424;-80
2022/03/30 06:20:24;;;;;;;10.70;7.13;;;;;;;;;;5042587;28;20144;-80
2022/03/30 06:22:51;;;;;;;11.98;7.20;;;;;;;;;;5064139;28;20084;-80
2022/03/30 06:25:17;;;;;;;12.00;6.90;;;;;;;;;;5077504;28;20517;-80
2022/03/30 06:27:42;;;;;;;15.48;6.60;;;;;;;;;;5094721;28;20141;-80
2022/03/30 06:30:09;;;;;;;11.48;6.63;;;;;;;;;;5061233;28;20042;-80
2022/03/30 06:32:35;;;;;;;13.25;7.13;;;;;;;;;;5093506;28;20379;-79
2022/03/30 06:35:04;;;;;;;13.15;6.93;;;;;;;;;;5071602;28;20047;-81
2022/03/30 06:37:30;;;;;;;12.65;6.57;;;;;;;;;;5056476;28;20036;-80
2022/03/30 06:39:55;;;;;;;15.15;8.10;;;;;;;;;;5083692;28;20036;-80
2022/03/30 06:42:21;;;;;;;11.55;6.97;;;;;;;;;;5073806;28;20036;-81
2022/03/30 06:44:47;;;;;;;9.00;6.68;;;;;;;;;;5056702;28;20035;-80
2022/03/30 06:47:12;;;;;;;9.43;6.55;;;;;;;;;;5059262;28;20040;-80
2022/03/30 06:49:38;;;;;;;11.80;6.80;;;;;;;;;;5039958;28;20040;-80
2022/03/30 06:52:04;;;;;;;11.85;6.47;;;;;;;;;;5057045;28;20505;-80
2022/03/30 06:54:30;;;;;;;14.90;6.80;;;;;;;;;;5039802;28;20442;-79
2022/03/30 06:56:55;;;;;;;13.00;6.78;;;;;;;;;;5058021;28;20064;-79
2022/03/30 06:59:21;;;;;;;8.10;5.55;;;;;;;;;;5090330;28;20091;-79
2022/03/30 07:01:46;;;;;;;10.15;6.43;;;;;;;;;;5040457;28;20050;-79
2022/03/30 07:04:12;;;;;;;11.45;6.20;;;;;;;;;;5056958;28;20417;-79
2022/03/30 07:10:14;;;;;;;8.18;5.70;;;;;;;;;;5072464;28;20052;-80
2022/03/30 07:12:06;;;;;;;7.57;5.60;;;;;;;;;;5076099;28;20040;-83
2022/03/30 07:14:32;;;;;;;13.18;6.47;;;;;;;;;;5047294;28;20406;-82
2022/03/30 07:16:57;;;;;;;10.38;6.70;;;;;;;;;;5056826;28;20044;-81
2022/03/30 07:19:24;;;;;;;10.77;6.30;;;;;;;;;;5060991;28;20035;-81
2022/03/30 07:21:50;;;;;;;10.00;6.75;;;;;;;;;;5065843;28;20040;-80
2022/03/30 07:24:15;;;;;;;11.38;6.95;;;;;;;;;;5065696;28;20063;-80
2022/03/30 07:26:40;;;;;;;11.77;7.75;;;;;;;;;;5070154;28;20405;-81
2022/03/30 07:29:06;;;;;;;12.15;8.68;;;;;;;;;;5073252;28;20410;-81
2022/03/30 07:31:31;;;;;;;11.40;7.38;;;;;;;;;;5072973;28;20113;-81
2022/03/30 07:33:57;;;;;;;11.75;7.40;;;;;;;;;;5060426;28;20032;-81
2022/03/30 07:36:22;;;;;;;13.48;8.20;;;;;;;;;;5092803;28;20047;-81
2022/03/30 07:38:48;;;;;;;10.68;8.23;;;;;;;;;;5075266;28;20459;-81
2022/03/30 07:41:13;;;;;;;11.40;7.65;;;;;;;;;;5075690;28;20378;-80
2022/03/30 07:43:39;;;;;;;13.07;8.40;;;;;;;;;;5055482;28;20515;-82
2022/03/30 07:46:04;;;;;;;14.80;7.40;;;;;;;;;;5059151;28;20036;-83
2022/03/30 07:48:30;;;;;;;16.48;9.55;;;;;;;;;;5073691;28;20036;-83
2022/03/30 07:50:55;;;;;;;18.27;10.02;;;;;;;;;;5077466;28;20043;-83
2022/03/30 07:53:21;;;;;;;13.50;8.60;;;;;;;;;;5077016;28;20032;-82
2022/03/30 07:55:47;;;;;;;15.25;9.43;;;;;;;;;;5058074;28;20088;-82
2022/03/30 07:58:14;;;;;;;16.27;9.63;;;;;;;;;;5060128;28;20047;-82
2022/03/30 08:00:40;;;;;;;15.05;8.05;;;;;;;;;;5076352;28;20040;-82
2022/03/30 08:03:05;;;;;;;14.07;9.48;;;;;;;;;;5076023;28;20031;-82
2022/03/30 08:05:31;;;;;;;16.52;9.63;;;;;;;;;;5059940;28;20953;-82
2022/03/30 08:07:57;;;;;;;17.52;8.55;;;;;;;;;;5075687;28;20433;-82
2022/03/30 08:10:22;;;;;;;24.17;10.23;;;;;;;;;;5060079;28;20056;-82
2022/03/30 08:12:48;;;;;;;23.83;11.10;;;;;;;;;;5075887;28;20055;-82
2022/03/30 08:15:13;;;;;;;21.67;8.73;;;;;;;;;;5076062;28;20487;-82
2022/03/30 08:17:39;;;;;;;27.75;10.30;;;;;;;;;;5059569;28;20032;-82
2022/03/30 08:20:05;;;;;;;22.58;10.75;;;;;;;;;;5082582;28;20084;-82
2022/03/30 08:22:30;;;;;;;23.35;10.63;;;;;;;;;;5079129;28;20081;-81
2022/03/30 08:25:10;;;;;;;31.42;12.52;;;;;;;;;;5059078;28;20109;-82
2022/03/30 08:27:36;;;;;;;22.60;9.18;;;;;;;;;;5093532;28;20039;-81
2022/03/30 08:30:03;;;;;;;21.52;10.40;;;;;;;;;;5059494;28;20039;-82
2022/03/30 08:32:28;;;;;;;30.85;20.25;;;;;;;;;;5076424;28;20032;-82
2022/03/30 08:34:54;;;;;;;82.32;62.17;;;;;;;;;;5042786;28;20042;-82
2022/03/30 08:37:20;;;;;;;40.95;25.98;;;;;;;;;;5059102;28;20042;-81
2022/03/30 08:39:45;;;;;;;54.22;39.47;;;;;;;;;;5074896;28;20482;-82
2022/03/30 08:42:11;;;;;;;74.35;53.80;;;;;;;;;;5058680;28;20055;-82
2022/03/30 08:44:37;;;;;;;80.82;56.95;;;;;;;;;;5058161;28;20074;-81
2022/03/30 08:47:03;;;;;;;78.53;55.00;;;;;;;;;;5074553;28;20525;-82
2022/03/30 08:49:33;;;;;;;73.57;52.28;;;;;;;;;;5059084;28;20410;-81
2022/03/30 08:51:59;;;;;;;62.53;45.05;;;;;;;;;;5043046;28;20631;-81
2022/03/30 08:54:26;;;;;;;61.17;43.63;;;;;;;;;;5041781;28;20629;-82
2022/03/30 08:56:52;;;;;;;56.70;38.35;;;;;;;;;;5044014;28;20039;-81
2022/03/30 08:59:19;;;;;;;48.25;34.60;;;;;;;;;;5092286;28;20032;-82
2022/03/30 09:01:45;;;;;;;43.58;33.70;;;;;;;;;;5059019;28;20036;-81
2022/03/30 09:04:12;;;;;;;50.80;32.78;;;;;;;;;;5075451;28;20038;-82
2022/03/30 09:06:54;;;;;;;44.55;29.65;;;;;;;;;;5075394;28;20402;-81
2022/03/30 09:09:38;;;;;;;38.67;27.75;;;;;;;;;;5058831;28;20034;-81
2022/03/30 09:12:08;;;;;;;37.75;27.60;;;;;;;;;;5075724;28;20091;-81
2022/03/30 09:14:34;;;;;;;33.92;23.77;;;;;;;;;;5075189;28;20035;-81
2022/03/30 09:17:01;;;;;;;30.83;22.70;;;;;;;;;;5057602;28;20398;-81
2022/03/30 09:19:27;;;;;;;27.02;22.35;;;;;;;;;;5058872;28;20423;-81
2022/03/30 09:21:54;;;;;;;27.02;20.67;;;;;;;;;;5078593;28;20122;-81
2022/03/30 09:24:24;;;;;;;27.75;19.92;;;;;;;;;;5073476;28;20031;-81
2022/03/30 09:26:53;;;;;;;25.52;19.40;;;;;;;;;;5075017;28;20490;-81
2022/03/30 09:29:23;;;;;;;27.63;17.90;;;;;;;;;;5042504;28;20443;-81
2022/03/30 09:31:49;;;;;;;22.02;16.95;;;;;;;;;;5091976;28;20040;-81
2022/03/30 09:34:15;;;;;;;24.02;16.80;;;;;;;;;;5074709;28;20039;-81
2022/03/30 09:36:41;;;;;;;21.70;14.35;;;;;;;;;;5058390;28;20105;-81
2022/03/30 09:39:09;;;;;;;21.45;13.85;;;;;;;;;;5074424;28;20559;-81
2022/03/30 09:41:51;;;;;;;24.48;13.25;;;;;;;;;;5075138;28;20036;-82
2022/03/30 09:44:17;;;;;;;22.10;13.60;;;;;;;;;;5058337;28;20036;-81
2022/03/30 09:47:05;;;;;;;20.02;12.85;;;;;;;;;;5057649;28;20119;-81
2022/03/30 09:49:41;;;;;;;17.42;12.25;;;;;;;;;;5059591;28;20032;-81
2022/03/30 09:52:16;;;;;;;19.15;11.20;;;;;;;;;;5091042;28;20043;-81
2022/03/30 09:54:49;;;;;;;17.13;12.18;;;;;;;;;;5074127;28;20078;-81
2022/03/30 09:57:22;;;;;;;14.80;11.20;;;;;;;;;;5063645;28;20114;-81
2022/03/30 10:00:08;;;;;;;17.75;11.43;;;;;;;;;;5058008;28;20486;-81
2022/03/30 10:02:38;;;;;;;17.42;11.05;;;;;;;;;;5074139;28;20036;-81
2022/03/30 10:05:05;;;;;;;18.90;11.88;;;;;;;;;;5074788;28;20043;-80
2022/03/30 10:07:30;;;;;;;19.88;11.75;;;;;;;;;;5057565;28;20413;-81
2022/03/30 10:09:57;;;;;;;14.70;10.18;;;;;;;;;;5073955;28;20026;-81
2022/03/30 10:12:23;;;;;;;16.83;9.13;;;;;;;;;;5057859;28;20040;-80
2022/03/30 10:14:49;;;;;;;16.75;10.23;;;;;;;;;;5040855;28;20085;-81
2022/03/30 10:17:15;;;;;;;25.08;10.90;;;;;;;;;;5073640;28;20036;-81
2022/03/30 10:19:44;;;;;;;18.08;10.38;;;;;;;;;;5076872;28;20123;-80
2022/03/30 10:22:37;;;;;;;19.88;10.07;;;;;;;;;;5077749;28;20080;-80
2022/03/30 10:25:40;;;;;;;13.55;10.23;;;;;;;;;;5111114;28;20082;-81
2022/03/30 10:28:11;;;;;;;26.52;23.58;;;;;;;;;;5094725;28;20547;-81
2022/03/30 10:30:39;;;;;;;25.27;17.98;;;;;;;;;;5110309;28;20054;-81
2022/03/30 10:33:04;;;;;;;17.38;15.52;;;;;;;;;;5060899;28;20038;-81
2022/03/30 10:35:43;;;;;;;21.48;13.68;;;;;;;;;;5077281;28;20031;-81
2022/03/30 10:38:08;;;;;;;17.23;11.18;;;;;;;;;;5061384;28;20033;-81
2022/03/30 10:40:34;;;;;;;17.52;12.07;;;;;;;;;;5077337;28;20397;-81
2022/03/30 10:43:01;;;;;;;20.40;12.07;;;;;;;;;;5094236;28;20165;-80
2022/03/30 10:45:42;;;;;;;17.75;11.35;;;;;;;;;;5076852;28;20024;-81
2022/03/30 10:48:29;;;;;;;19.48;11.23;;;;;;;;;;5093689;28;20043;-81
2022/03/30 10:50:56;;;;;;;17.48;10.88;;;;;;;;;;5093133;28;20096;-81
2022/03/30 10:53:31;;;;;;;15.18;9.65;;;;;;;;;;5110654;28;20039;-81
2022/03/30 10:56:09;;;;;;;15.30;9.55;;;;;;;;;;5110843;28;20770;-80
2022/03/30 10:59:01;;;;;;;15.18;10.50;;;;;;;;;;5110725;28;20096;-81
2022/03/30 11:01:37;;;;;;;13.25;8.27;;;;;;;;;;5093246;28;20036;-81
2022/03/30 11:04:18;;;;;;;15.98;8.95;;;;;;;;;;5060789;28;20043;-81
2022/03/30 11:07:03;;;;;;;16.15;8.48;;;;;;;;;;5095508;28;20506;-81
2022/03/30 11:09:30;;;;;;;13.25;8.13;;;;;;;;;;5098293;28;20586;-81
2022/03/30 11:11:59;;;;;;;15.75;7.65;;;;;;;;;;5066350;28;20032;-80
2022/03/30 11:14:26;;;;;;;14.60;7.95;;;;;;;;;;5085599;28;20042;-81
2022/03/30 11:16:54;;;;;;;11.30;7.18;;;;;;;;;;5094069;28;20040;-81
2022/03/30 11:19:22;;;;;;;12.77;8.15;;;;;;;;;;5061050;28;20374;-81
2022/03/30 11:22:22;;;;;;;13.13;6.88;;;;;;;;;;5077115;28;20552;-80
2022/03/30 11:25:13;;;;;;;11.80;6.72;;;;;;;;;;5081195;28;20140;-80
2022/03/30 11:27:40;;;;;;;103.73;57.83;;;;;;;;;;5051911;28;20409;-81
2022/03/30 11:30:08;;;;;;;139.50;83.65;;;;;;;;;;5060041;28;20032;-80
2022/03/30 11:32:37;;;;;;;125.15;74.97;;;;;;;;;;5093929;28;20466;-81
2022/03/30 11:35:11;;;;;;;116.20;73.47;;;;;;;;;;5061161;28;20051;-81
2022/03/30 11:37:45;;;;;;;175.32;111.65;;;;;;;;;;5043608;28;20020;-80
2022/03/30 11:40:11;;;;;;;156.35;97.28;;;;;;;;;;5061145;28;20395;-81
2022/03/30 11:42:37;;;;;;;153.50;98.28;;;;;;;;;;5093932;28;20047;-81
2022/03/30 11:45:13;;;;;;;138.93;89.95;;;;;;;;;;5059939;28;20043;-81
2022/03/30 11:47:47;;;;;;;131.45;83.40;;;;;;;;;;5062797;28;20039;-81
2022/03/30 11:50:15;;;;;;;115.45;73.65;;;;;;;;;;5097122;28;20050;-81
2022/03/30 11:52:42;;;;;;;110.72;69.68;;;;;;;;;;5080232;28;20023;-81
2022/03/30 11:55:09;;;;;;;111.10;69.20;;;;;;;;;;5079853;28;20534;-81
2022/03/30 11:57:39;;;;;;;96.55;62.67;;;;;;;;;;5076333;28;20077;-81
2022/03/30 12:00:09;;;;;;;90.05;58.00;;;;;;;;;;5069368;28;20116;-80
2022/03/30 12:02:35;;;;;;;107.63;71.00;;;;;;;;;;5093625;28;20063;-81
2022/03/30 12:05:00;;;;;;;105.68;65.38;;;;;;;;;;5076447;28;20132;-81
2022/03/30 12:07:25;;;;;;;95.57;61.08;;;;;;;;;;5059837;28;20089;-81
2022/03/30 12:09:53;;;;;;;79.25;53.95;;;;;;;;;;5076078;28;20036;-81
2022/03/30 12:12:26;;;;;;;76.22;51.65;;;;;;;;;;5076175;28;20129;-81
2022/03/30 12:14:59;;;;;;;70.47;46.80;;;;;;;;;;5077898;28;20063;-81
2022/03/30 12:17:25;;;;;;;65.88;44.15;;;;;;;;;;5079078;28;20413;-81
2022/03/30 12:19:53;;;;;;;66.35;39.95;;;;;;;;;;5075016;28;20063;-81
2022/03/30 12:22:19;;;;;;;59.33;38.70;;;;;;;;;;5075469;28;20046;-81
2022/03/30 12:24:45;;;;;;;57.35;36.38;;;;;;;;;;5058978;28;20406;-81
2022/03/30 12:27:11;;;;;;;54.13;35.08;;;;;;;;;;5075876;28;20476;-81
2022/03/30 12:29:38;;;;;;;49.67;32.47;;;;;;;;;;5075878;28;20038;-81
2022/03/30 12:32:04;;;;;;;45.35;31.08;;;;;;;;;;5042943;28;20028;-81
2022/03/30 12:34:31;;;;;;;49.47;29.38;;;;;;;;;;5059293;28;20068;-81
2022/03/30 12:36:58;;;;;;;45.47;27.55;;;;;;;;;;5043062;28;20028;-81
2022/03/30 12:39:41;;;;;;;46.20;26.20;;;;;;;;;;5059314;28;20032;-82
2022/03/30 12:42:11;;;;;;;38.58;25.38;;;;;;;;;;5059350;28;20578;-82
2022/03/30 12:44:46;;;;;;;38.08;23.70;;;;;;;;;;5076120;28;20036;-81
2022/03/30 12:47:35;;;;;;;36.55;23.80;;;;;;;;;;5060001;28;20081;-81
2022/03/30 12:50:07;;;;;;;38.15;21.65;;;;;;;;;;5075644;28;20044;-81
2022/03/30 12:52:40;;;;;;;33.58;20.67;;;;;;;;;;5075378;28;20406;-81
2022/03/30 12:55:13;;;;;;;27.50;18.83;;;;;;;;;;5068304;28;20047;-81
2022/03/30 12:57:50;;;;;;;26.30;19.13;;;;;;;;;;5095480;28;20039;-81
2022/03/30 13:00:21;;;;;;;28.20;18.05;;;;;;;;;;5092513;28;20059;-81
2022/03/30 13:02:47;;;;;;;25.25;16.55;;;;;;;;;;5075500;28;20036;-81
2022/03/30 13:05:23;;;;;;;26.67;17.45;;;;;;;;;;5074747;28;20508;-81
2022/03/30 13:07:50;;;;;;;29.45;15.25;;;;;;;;;;5057613;28;20036;-80
2022/03/30 13:10:18;;;;;;;26.00;16.88;;;;;;;;;;5058244;28;20039;-81
2022/03/30 13:12:44;;;;;;;62.03;37.88;;;;;;;;;;5071609;28;20138;-82
2022/03/30 13:15:11;;;;;;;61.55;38.33;;;;;;;;;;5093235;28;20035;-81
2022/03/30 13:17:53;;;;;;;59.15;35.17;;;;;;;;;;5057850;28;20020;-82
2022/03/30 13:20:19;;;;;;;53.33;32.88;;;;;;;;;;5080045;28;20040;-81
2022/03/30 13:22:54;;;;;;;53.00;29.55;;;;;;;;;;5058836;28;20506;-81
2022/03/30 13:25:44;;;;;;;41.13;26.05;;;;;;;;;;5061850;28;20481;-81
2022/03/30 13:28:23;;;;;;;38.22;25.30;;;;;;;;;;5082528;28;20053;-81
2022/03/30 13:30:48;;;;;;;111.05;86.15;;;;;;;;;;5081308;28;20563;-80
2022/03/30 13:33:14;;;;;;;132.07;103.35;;;;;;;;;;5058025;28;20071;-81
2022/03/30 13:35:39;;;;;;;101.80;79.68;;;;;;;;;;5057120;28;20066;-80
2022/03/30 13:38:14;;;;;;;85.22;62.90;;;;;;;;;;5092390;28;20078;-80
2022/03/30 13:40:40;;;;;;;67.68;52.72;;;;;;;;;;5078291;28;20044;-80
2022/03/30 13:43:06;;;;;;;67.55;47.70;;;;;;;;;;5078193;28;20067;-80
2022/03/30 13:45:31;;;;;;;60.72;44.83;;;;;;;;;;5077853;28;20057;-80
2022/03/30 13:47:57;;;;;;;49.83;41.47;;;;;;;;;;5077967;28;20054;-80
2022/03/30 13:50:22;;;;;;;50.22;38.65;;;;;;;;;;5061191;28;20420;-80
2022/03/30 13:52:47;;;;;;;45.65;33.22;;;;;;;;;;5077725;28;20122;-80
2022/03/30 13:55:13;;;;;;;43.17;32.38;;;;;;;;;;5077104;28;20039;-80
2022/03/30 13:57:38;;;;;;;38.58;29.73;;;;;;;;;;5077947;28;20405;-80
2022/03/30 14:00:04;;;;;;;32.38;25.92;;;;;;;;;;5091151;28;20028;-80
2022/03/30 14:02:30;;;;;;;32.08;24.02;;;;;;;;;;5057908;28;20394;-80
2022/03/30 14:04:55;;;;;;;33.45;25.08;;;;;;;;;;5057853;28;20043;-80
2022/03/30 14:07:21;;;;;;;32.60;24.92;;;;;;;;;;5040953;28;20032;-80
2022/03/30 14:09:46;;;;;;;28.33;22.33;;;;;;;;;;5040664;28;20028;-80
2022/03/30 14:12:12;;;;;;;30.80;20.75;;;;;;;;;;5073285;28;20047;-80
2022/03/30 14:14:38;;;;;;;26.83;19.58;;;;;;;;;;5048865;28;20040;-80
2022/03/30 14:17:04;;;;;;;26.08;17.83;;;;;;;;;;5064618;28;20409;-80
2022/03/30 14:19:32;;;;;;;23.50;16.90;;;;;;;;;;5059239;28;20035;-80
2022/03/30 14:21:58;;;;;;;21.38;15.50;;;;;;;;;;5057888;28;20043;-80
2022/03/30 14:24:24;;;;;;;20.90;14.85;;;;;;;;;;5068044;28;20032;-80
2022/03/30 14:26:51;;;;;;;21.73;15.02;;;;;;;;;;5057709;28;20092;-80
2022/03/30 14:29:18;;;;;;;18.40;13.98;;;;;;;;;;5057853;28;20032;-81
2022/03/30 14:31:44;;;;;;;17.35;11.82;;;;;;;;;;5060031;28;20032;-80
2022/03/30 14:34:09;;;;;;;17.60;12.57;;;;;;;;;;5073860;28;20036;-79
2022/03/30 14:36:34;;;;;;;16.90;11.75;;;;;;;;;;5090613;28;20093;-79